sensor_id;sensor_type;location;lat;lon;timestamp;P1;durP1;ratioP1;P2;durP2;ratioP2
64738;SDS011;51175;51.186;0.276;2023-03-23T00:00:24;227.30;;;158.25;;
64738;SDS011;51175;51.186;0.276;2023-03-23T00:00:54;231.77;;;160.20;;
64738;SDS011;51175;51.186;0.276;2023-03-23T00:01:24;230.65;;;158.68;;
64738;SDS011;51175;51.186;0.276;2023-03-23T00:01:56;229.20;;;157.63;;
64738;SDS011;51175;51.186;0.276;2023-03-23T00:02:27;228.93;;;157.63;;
64738;SDS011;51175;51.186;0.276;2023-03-23T00:02:58;223.93;;;155.38;;
64738;SDS011;51175;51.186;0.276;2023-03-23T00:03:29;229.27;;;161.68;;
64738;SDS011;51175;51.186;0.276;2023-03-23T00:04:01;237.18;;;162.50;;
64738;SDS011;51175;51.186;0.276;2023-03-23T00:04:32;240.70;;;166.25;;
64738;SDS011;51175;51.186;0.276;2023-03-23T00:05:04;229.98;;;162.10;;
64738;SDS011;51175;51.186;0.276;2023-03-23T00:05:38;230.82;;;162.05;;
64738;SDS011;51175;51.186;0.276;2023-03-23T00:06:11;227.50;;;160.80;;
64738;SDS011;51175;51.186;0.276;2023-03-23T00:06:46;234.90;;;162.93;;
64738;SDS011;51175;51.186;0.276;2023-03-23T00:07:17;226.65;;;164.77;;
64738;SDS011;51175;51.186;0.276;2023-03-23T00:07:51;233.50;;;160.32;;
64738;SDS011;51175;51.186;0.276;2023-03-23T00:08:22;222.90;;;158.40;;
64738;SDS011;51175;51.186;0.276;2023-03-23T00:08:52;227.50;;;158.30;;
64738;SDS011;51175;51.186;0.276;2023-03-23T00:09:29;223.90;;;159.05;;
64738;SDS011;51175;51.186;0.276;2023-03-23T00:09:59;236.40;;;162.52;;
64738;SDS011;51175;51.186;0.276;2023-03-23T00:10:34;226.50;;;155.70;;
64738;SDS011;51175;51.186;0.276;2023-03-23T00:11:05;228.50;;;159.48;;
64738;SDS011;51175;51.186;0.276;2023-03-23T00:11:35;222.73;;;159.60;;
64738;SDS011;51175;51.186;0.276;2023-03-23T00:12:06;225.93;;;158.27;;
64738;SDS011;51175;51.186;0.276;2023-03-23T00:12:36;226.82;;;156.70;;
64738;SDS011;51175;51.186;0.276;2023-03-23T00:13:07;225.68;;;155.70;;
64738;SDS011;51175;51.186;0.276;2023-03-23T00:13:37;225.25;;;161.15;;
64738;SDS011;51175;51.186;0.276;2023-03-23T00:14:08;223.65;;;160.20;;
64738;SDS011;51175;51.186;0.276;2023-03-23T00:14:42;231.88;;;160.80;;
64738;SDS011;51175;51.186;0.276;2023-03-23T00:15:13;230.60;;;159.40;;
64738;SDS011;51175;51.186;0.276;2023-03-23T00:15:46;230.73;;;157.85;;
64738;SDS011;51175;51.186;0.276;2023-03-23T00:16:20;230.00;;;157.07;;
64738;SDS011;51175;51.186;0.276;2023-03-23T00:16:58;228.63;;;158.60;;
64738;SDS011;51175;51.186;0.276;2023-03-23T00:17:29;230.60;;;160.23;;
64738;SDS011;51175;51.186;0.276;2023-03-23T00:18:03;222.27;;;156.60;;
64738;SDS011;51175;51.186;0.276;2023-03-23T00:18:34;214.18;;;148.65;;
64738;SDS011;51175;51.186;0.276;2023-03-23T00:19:05;217.50;;;151.73;;
64738;SDS011;51175;51.186;0.276;2023-03-23T00:19:42;218.57;;;150.20;;
64738;SDS011;51175;51.186;0.276;2023-03-23T00:20:15;223.15;;;152.60;;
64738;SDS011;51175;51.186;0.276;2023-03-23T00:20:49;217.27;;;151.90;;
64738;SDS011;51175;51.186;0.276;2023-03-23T00:21:26;228.30;;;155.65;;
64738;SDS011;51175;51.186;0.276;2023-03-23T00:22:04;229.45;;;157.85;;
64738;SDS011;51175;51.186;0.276;2023-03-23T00:22:36;230.60;;;160.23;;
64738;SDS011;51175;51.186;0.276;2023-03-23T00:23:07;227.35;;;156.13;;
64738;SDS011;51175;51.186;0.276;2023-03-23T00:23:38;222.35;;;157.38;;
64738;SDS011;51175;51.186;0.276;2023-03-23T00:24:10;217.98;;;153.63;;
64738;SDS011;51175;51.186;0.276;2023-03-23T00:24:42;223.68;;;153.95;;
64738;SDS011;51175;51.186;0.276;2023-03-23T00:25:14;224.82;;;159.90;;
64738;SDS011;51175;51.186;0.276;2023-03-23T00:25:47;234.82;;;160.15;;
64738;SDS011;51175;51.186;0.276;2023-03-23T00:26:18;223.82;;;154.77;;
64738;SDS011;51175;51.186;0.276;2023-03-23T00:26:48;220.27;;;157.55;;
64738;SDS011;51175;51.186;0.276;2023-03-23T00:27:21;222.02;;;158.65;;
64738;SDS011;51175;51.186;0.276;2023-03-23T00:27:53;220.05;;;153.23;;
64738;SDS011;51175;51.186;0.276;2023-03-23T00:28:24;226.57;;;158.52;;
64738;SDS011;51175;51.186;0.276;2023-03-23T00:28:56;216.43;;;154.85;;
64738;SDS011;51175;51.186;0.276;2023-03-23T00:29:26;224.07;;;155.10;;
64738;SDS011;51175;51.186;0.276;2023-03-23T00:29:57;222.18;;;156.73;;
64738;SDS011;51175;51.186;0.276;2023-03-23T00:30:27;218.52;;;151.85;;
64738;SDS011;51175;51.186;0.276;2023-03-23T00:30:58;217.73;;;154.57;;
64738;SDS011;51175;51.186;0.276;2023-03-23T00:31:33;224.15;;;155.48;;
64738;SDS011;51175;51.186;0.276;2023-03-23T00:32:05;222.35;;;154.02;;
64738;SDS011;51175;51.186;0.276;2023-03-23T00:32:35;223.02;;;155.40;;
64738;SDS011;51175;51.186;0.276;2023-03-23T00:33:05;220.90;;;152.40;;
64738;SDS011;51175;51.186;0.276;2023-03-23T00:33:36;228.82;;;157.68;;
64738;SDS011;51175;51.186;0.276;2023-03-23T00:34:08;227.13;;;156.60;;
64738;SDS011;51175;51.186;0.276;2023-03-23T00:34:42;220.05;;;150.43;;
64738;SDS011;51175;51.186;0.276;2023-03-23T00:35:14;224.20;;;155.00;;
64738;SDS011;51175;51.186;0.276;2023-03-23T00:35:45;224.90;;;156.80;;
64738;SDS011;51175;51.186;0.276;2023-03-23T00:36:15;215.77;;;152.30;;
64738;SDS011;51175;51.186;0.276;2023-03-23T00:36:48;212.25;;;152.23;;
64738;SDS011;51175;51.186;0.276;2023-03-23T00:37:20;212.88;;;151.30;;
64738;SDS011;51175;51.186;0.276;2023-03-23T00:37:51;209.27;;;151.80;;
64738;SDS011;51175;51.186;0.276;2023-03-23T00:38:22;220.23;;;153.05;;
64738;SDS011;51175;51.186;0.276;2023-03-23T00:38:53;215.25;;;150.23;;
64738;SDS011;51175;51.186;0.276;2023-03-23T00:39:28;210.55;;;148.80;;
64738;SDS011;51175;51.186;0.276;2023-03-23T00:39:58;214.57;;;149.48;;
64738;SDS011;51175;51.186;0.276;2023-03-23T00:40:30;214.88;;;150.13;;
64738;SDS011;51175;51.186;0.276;2023-03-23T00:41:01;217.95;;;149.75;;
64738;SDS011;51175;51.186;0.276;2023-03-23T00:41:33;215.52;;;148.20;;
64738;SDS011;51175;51.186;0.276;2023-03-23T00:42:06;214.35;;;149.52;;
64738;SDS011;51175;51.186;0.276;2023-03-23T00:42:36;217.57;;;152.32;;
64738;SDS011;51175;51.186;0.276;2023-03-23T00:43:07;210.68;;;150.55;;
64738;SDS011;51175;51.186;0.276;2023-03-23T00:43:38;210.30;;;147.50;;
64738;SDS011;51175;51.186;0.276;2023-03-23T00:44:09;213.75;;;149.30;;
64738;SDS011;51175;51.186;0.276;2023-03-23T00:44:39;205.93;;;145.10;;
64738;SDS011;51175;51.186;0.276;2023-03-23T00:45:10;217.70;;;150.05;;
64738;SDS011;51175;51.186;0.276;2023-03-23T00:45:42;208.55;;;149.27;;
64738;SDS011;51175;51.186;0.276;2023-03-23T00:46:14;200.68;;;142.25;;
64738;SDS011;51175;51.186;0.276;2023-03-23T00:46:45;209.55;;;147.10;;
64738;SDS011;51175;51.186;0.276;2023-03-23T00:47:18;204.48;;;144.90;;
64738;SDS011;51175;51.186;0.276;2023-03-23T00:47:48;210.80;;;145.68;;
64738;SDS011;51175;51.186;0.276;2023-03-23T00:48:21;210.25;;;147.15;;
64738;SDS011;51175;51.186;0.276;2023-03-23T00:48:53;209.80;;;147.90;;
64738;SDS011;51175;51.186;0.276;2023-03-23T00:49:25;208.70;;;147.50;;
64738;SDS011;51175;51.186;0.276;2023-03-23T00:49:56;214.93;;;145.13;;
64738;SDS011;51175;51.186;0.276;2023-03-23T00:50:26;213.27;;;144.48;;
64738;SDS011;51175;51.186;0.276;2023-03-23T00:50:57;203.63;;;144.45;;
64738;SDS011;51175;51.186;0.276;2023-03-23T00:51:27;210.13;;;146.98;;
64738;SDS011;51175;51.186;0.276;2023-03-23T00:51:58;206.90;;;146.90;;
64738;SDS011;51175;51.186;0.276;2023-03-23T00:52:28;203.57;;;143.25;;
64738;SDS011;51175;51.186;0.276;2023-03-23T00:52:59;207.95;;;148.13;;
64738;SDS011;51175;51.186;0.276;2023-03-23T00:53:29;204.88;;;142.63;;
64738;SDS011;51175;51.186;0.276;2023-03-23T00:54:00;203.65;;;142.05;;
64738;SDS011;51175;51.186;0.276;2023-03-23T00:54:30;213.82;;;145.65;;
64738;SDS011;51175;51.186;0.276;2023-03-23T00:55:00;202.73;;;141.15;;
64738;SDS011;51175;51.186;0.276;2023-03-23T00:55:31;206.30;;;144.98;;
64738;SDS011;51175;51.186;0.276;2023-03-23T00:56:01;207.07;;;143.25;;
64738;SDS011;51175;51.186;0.276;2023-03-23T00:56:31;212.98;;;146.52;;
64738;SDS011;51175;51.186;0.276;2023-03-23T00:57:02;199.10;;;137.70;;
64738;SDS011;51175;51.186;0.276;2023-03-23T00:57:32;206.93;;;143.77;;
64738;SDS011;51175;51.186;0.276;2023-03-23T00:58:03;196.88;;;137.38;;
64738;SDS011;51175;51.186;0.276;2023-03-23T00:58:33;204.73;;;139.98;;
64738;SDS011;51175;51.186;0.276;2023-03-23T00:59:04;206.75;;;141.15;;
64738;SDS011;51175;51.186;0.276;2023-03-23T00:59:35;201.55;;;140.68;;
64738;SDS011;51175;51.186;0.276;2023-03-23T01:00:06;209.50;;;144.07;;
64738;SDS011;51175;51.186;0.276;2023-03-23T01:00:41;209.18;;;141.80;;
64738;SDS011;51175;51.186;0.276;2023-03-23T01:01:12;201.88;;;140.18;;
64738;SDS011;51175;51.186;0.276;2023-03-23T01:01:42;203.68;;;139.00;;
64738;SDS011;51175;51.186;0.276;2023-03-23T01:02:13;202.25;;;138.93;;
64738;SDS011;51175;51.186;0.276;2023-03-23T01:02:43;190.23;;;132.32;;
64738;SDS011;51175;51.186;0.276;2023-03-23T01:03:14;201.20;;;140.07;;
64738;SDS011;51175;51.186;0.276;2023-03-23T01:03:48;197.40;;;138.73;;
64738;SDS011;51175;51.186;0.276;2023-03-23T01:04:19;197.07;;;136.98;;
64738;SDS011;51175;51.186;0.276;2023-03-23T01:04:50;197.55;;;135.32;;
64738;SDS011;51175;51.186;0.276;2023-03-23T01:05:22;198.20;;;139.18;;
64738;SDS011;51175;51.186;0.276;2023-03-23T01:05:52;198.73;;;138.18;;
64738;SDS011;51175;51.186;0.276;2023-03-23T01:06:23;198.35;;;139.88;;
64738;SDS011;51175;51.186;0.276;2023-03-23T01:06:53;198.02;;;136.32;;
64738;SDS011;51175;51.186;0.276;2023-03-23T01:07:24;195.40;;;135.55;;
64738;SDS011;51175;51.186;0.276;2023-03-23T01:07:54;194.48;;;137.73;;
64738;SDS011;51175;51.186;0.276;2023-03-23T01:08:25;196.00;;;133.32;;
64738;SDS011;51175;51.186;0.276;2023-03-23T01:08:55;198.70;;;136.35;;
64738;SDS011;51175;51.186;0.276;2023-03-23T01:09:26;191.90;;;136.38;;
64738;SDS011;51175;51.186;0.276;2023-03-23T01:09:57;190.85;;;133.68;;
64738;SDS011;51175;51.186;0.276;2023-03-23T01:10:27;196.50;;;136.00;;
64738;SDS011;51175;51.186;0.276;2023-03-23T01:11:02;195.73;;;134.70;;
64738;SDS011;51175;51.186;0.276;2023-03-23T01:11:34;187.70;;;130.77;;
64738;SDS011;51175;51.186;0.276;2023-03-23T01:12:05;200.05;;;130.85;;
64738;SDS011;51175;51.186;0.276;2023-03-23T01:12:35;192.63;;;134.00;;
64738;SDS011;51175;51.186;0.276;2023-03-23T01:13:06;187.32;;;132.50;;
64738;SDS011;51175;51.186;0.276;2023-03-23T01:13:37;191.85;;;131.82;;
64738;SDS011;51175;51.186;0.276;2023-03-23T01:14:08;194.38;;;134.90;;
64738;SDS011;51175;51.186;0.276;2023-03-23T01:14:38;186.75;;;130.75;;
64738;SDS011;51175;51.186;0.276;2023-03-23T01:15:09;195.27;;;135.38;;
64738;SDS011;51175;51.186;0.276;2023-03-23T01:15:44;191.82;;;132.15;;
64738;SDS011;51175;51.186;0.276;2023-03-23T01:16:16;192.00;;;132.73;;
64738;SDS011;51175;51.186;0.276;2023-03-23T01:16:46;186.90;;;133.25;;
64738;SDS011;51175;51.186;0.276;2023-03-23T01:17:16;188.75;;;130.45;;
64738;SDS011;51175;51.186;0.276;2023-03-23T01:17:48;180.98;;;131.13;;
64738;SDS011;51175;51.186;0.276;2023-03-23T01:18:19;185.00;;;130.35;;
64738;SDS011;51175;51.186;0.276;2023-03-23T01:18:49;184.57;;;129.48;;
64738;SDS011;51175;51.186;0.276;2023-03-23T01:19:19;184.38;;;125.38;;
64738;SDS011;51175;51.186;0.276;2023-03-23T01:19:50;183.38;;;130.30;;
64738;SDS011;51175;51.186;0.276;2023-03-23T01:20:20;187.50;;;127.90;;
64738;SDS011;51175;51.186;0.276;2023-03-23T01:20:51;186.10;;;132.95;;
64738;SDS011;51175;51.186;0.276;2023-03-23T01:21:21;193.43;;;131.10;;
64738;SDS011;51175;51.186;0.276;2023-03-23T01:21:52;183.70;;;129.85;;
64738;SDS011;51175;51.186;0.276;2023-03-23T01:22:22;189.82;;;127.80;;
64738;SDS011;51175;51.186;0.276;2023-03-23T01:22:53;182.25;;;126.18;;
64738;SDS011;51175;51.186;0.276;2023-03-23T01:23:30;180.50;;;128.00;;
64738;SDS011;51175;51.186;0.276;2023-03-23T01:24:01;180.98;;;126.85;;
64738;SDS011;51175;51.186;0.276;2023-03-23T01:24:32;185.45;;;128.43;;
64738;SDS011;51175;51.186;0.276;2023-03-23T01:25:02;189.55;;;127.57;;
64738;SDS011;51175;51.186;0.276;2023-03-23T01:25:34;190.88;;;131.10;;
64738;SDS011;51175;51.186;0.276;2023-03-23T01:26:07;186.48;;;128.85;;
64738;SDS011;51175;51.186;0.276;2023-03-23T01:26:42;177.48;;;124.82;;
64738;SDS011;51175;51.186;0.276;2023-03-23T01:27:12;185.52;;;128.13;;
64738;SDS011;51175;51.186;0.276;2023-03-23T01:27:42;181.30;;;127.07;;
64738;SDS011;51175;51.186;0.276;2023-03-23T01:28:13;181.88;;;130.32;;
64738;SDS011;51175;51.186;0.276;2023-03-23T01:28:43;187.65;;;128.63;;
64738;SDS011;51175;51.186;0.276;2023-03-23T01:29:14;186.73;;;126.60;;
64738;SDS011;51175;51.186;0.276;2023-03-23T01:29:45;179.68;;;124.38;;
64738;SDS011;51175;51.186;0.276;2023-03-23T01:30:15;174.60;;;124.40;;
64738;SDS011;51175;51.186;0.276;2023-03-23T01:30:46;185.23;;;126.28;;
64738;SDS011;51175;51.186;0.276;2023-03-23T01:31:20;178.98;;;124.25;;
64738;SDS011;51175;51.186;0.276;2023-03-23T01:31:52;183.98;;;125.10;;
64738;SDS011;51175;51.186;0.276;2023-03-23T01:32:22;179.50;;;123.25;;
64738;SDS011;51175;51.186;0.276;2023-03-23T01:32:53;177.77;;;122.55;;
64738;SDS011;51175;51.186;0.276;2023-03-23T01:33:24;174.40;;;123.82;;
64738;SDS011;51175;51.186;0.276;2023-03-23T01:33:55;179.82;;;126.40;;
64738;SDS011;51175;51.186;0.276;2023-03-23T01:34:26;172.90;;;122.22;;
64738;SDS011;51175;51.186;0.276;2023-03-23T01:34:56;183.70;;;127.03;;
64738;SDS011;51175;51.186;0.276;2023-03-23T01:35:27;177.20;;;125.78;;
64738;SDS011;51175;51.186;0.276;2023-03-23T01:35:58;180.85;;;126.47;;
64738;SDS011;51175;51.186;0.276;2023-03-23T01:36:33;178.75;;;125.18;;
64738;SDS011;51175;51.186;0.276;2023-03-23T01:37:03;174.23;;;121.68;;
64738;SDS011;51175;51.186;0.276;2023-03-23T01:37:34;181.43;;;124.55;;
64738;SDS011;51175;51.186;0.276;2023-03-23T01:38:06;177.50;;;124.50;;
64738;SDS011;51175;51.186;0.276;2023-03-23T01:38:36;174.68;;;119.88;;
64738;SDS011;51175;51.186;0.276;2023-03-23T01:39:07;175.35;;;122.40;;
64738;SDS011;51175;51.186;0.276;2023-03-23T01:39:37;179.68;;;124.40;;
64738;SDS011;51175;51.186;0.276;2023-03-23T01:40:08;173.40;;;119.50;;
64738;SDS011;51175;51.186;0.276;2023-03-23T01:40:40;175.52;;;118.78;;
64738;SDS011;51175;51.186;0.276;2023-03-23T01:41:10;173.93;;;121.28;;
64738;SDS011;51175;51.186;0.276;2023-03-23T01:41:41;176.98;;;123.28;;
64738;SDS011;51175;51.186;0.276;2023-03-23T01:42:11;175.02;;;120.68;;
64738;SDS011;51175;51.186;0.276;2023-03-23T01:42:42;176.95;;;122.95;;
64738;SDS011;51175;51.186;0.276;2023-03-23T01:43:13;176.82;;;119.47;;
64738;SDS011;51175;51.186;0.276;2023-03-23T01:43:54;176.15;;;122.18;;
64738;SDS011;51175;51.186;0.276;2023-03-23T01:45:50;173.93;;;118.88;;
64738;SDS011;51175;51.186;0.276;2023-03-23T01:46:20;170.40;;;116.60;;
64738;SDS011;51175;51.186;0.276;2023-03-23T01:46:52;178.85;;;118.15;;
64738;SDS011;51175;51.186;0.276;2023-03-23T01:47:24;170.68;;;119.30;;
64738;SDS011;51175;51.186;0.276;2023-03-23T01:48:33;177.07;;;123.40;;
64738;SDS011;51175;51.186;0.276;2023-03-23T01:49:11;164.23;;;115.38;;
64738;SDS011;51175;51.186;0.276;2023-03-23T01:49:47;165.10;;;113.18;;
64738;SDS011;51175;51.186;0.276;2023-03-23T01:50:19;168.93;;;115.70;;
64738;SDS011;51175;51.186;0.276;2023-03-23T01:51:03;168.52;;;113.82;;
64738;SDS011;51175;51.186;0.276;2023-03-23T01:51:40;173.63;;;119.43;;
64738;SDS011;51175;51.186;0.276;2023-03-23T01:52:23;178.35;;;117.35;;
64738;SDS011;51175;51.186;0.276;2023-03-23T01:52:59;168.88;;;116.68;;
64738;SDS011;51175;51.186;0.276;2023-03-23T01:53:35;166.65;;;114.53;;
64738;SDS011;51175;51.186;0.276;2023-03-23T01:54:09;172.38;;;118.13;;
64738;SDS011;51175;51.186;0.276;2023-03-23T01:55:20;168.50;;;112.50;;
64738;SDS011;51175;51.186;0.276;2023-03-23T01:55:52;169.55;;;113.82;;
64738;SDS011;51175;51.186;0.276;2023-03-23T01:56:31;169.93;;;111.88;;
64738;SDS011;51175;51.186;0.276;2023-03-23T01:57:11;165.65;;;112.60;;
64738;SDS011;51175;51.186;0.276;2023-03-23T01:57:44;167.90;;;114.43;;
64738;SDS011;51175;51.186;0.276;2023-03-23T01:58:17;155.77;;;108.82;;
64738;SDS011;51175;51.186;0.276;2023-03-23T01:58:55;161.43;;;112.47;;
64738;SDS011;51175;51.186;0.276;2023-03-23T01:59:26;168.40;;;114.10;;
64738;SDS011;51175;51.186;0.276;2023-03-23T01:59:59;166.80;;;115.28;;
64738;SDS011;51175;51.186;0.276;2023-03-23T02:00:40;165.35;;;115.95;;
64738;SDS011;51175;51.186;0.276;2023-03-23T02:01:13;156.07;;;110.15;;
64738;SDS011;51175;51.186;0.276;2023-03-23T02:01:45;162.32;;;113.93;;
64738;SDS011;51175;51.186;0.276;2023-03-23T02:02:16;167.90;;;115.88;;
64738;SDS011;51175;51.186;0.276;2023-03-23T02:02:49;171.32;;;112.82;;
64738;SDS011;51175;51.186;0.276;2023-03-23T02:03:20;167.18;;;114.68;;
64738;SDS011;51175;51.186;0.276;2023-03-23T02:03:54;158.70;;;110.90;;
64738;SDS011;51175;51.186;0.276;2023-03-23T02:04:27;162.85;;;115.65;;
64738;SDS011;51175;51.186;0.276;2023-03-23T02:05:02;163.63;;;112.15;;
64738;SDS011;51175;51.186;0.276;2023-03-23T02:05:39;163.23;;;113.45;;
64738;SDS011;51175;51.186;0.276;2023-03-23T02:06:11;163.43;;;112.20;;
64738;SDS011;51175;51.186;0.276;2023-03-23T02:06:42;157.82;;;109.50;;
64738;SDS011;51175;51.186;0.276;2023-03-23T02:07:15;162.23;;;109.70;;
64738;SDS011;51175;51.186;0.276;2023-03-23T02:07:47;158.13;;;107.32;;
64738;SDS011;51175;51.186;0.276;2023-03-23T02:08:18;152.68;;;105.88;;
64738;SDS011;51175;51.186;0.276;2023-03-23T02:08:49;154.75;;;108.13;;
64738;SDS011;51175;51.186;0.276;2023-03-23T02:09:21;157.07;;;110.75;;
64738;SDS011;51175;51.186;0.276;2023-03-23T02:09:52;154.38;;;109.82;;
64738;SDS011;51175;51.186;0.276;2023-03-23T02:10:23;154.38;;;107.68;;
64738;SDS011;51175;51.186;0.276;2023-03-23T02:10:53;152.90;;;104.82;;
64738;SDS011;51175;51.186;0.276;2023-03-23T02:11:24;158.93;;;107.63;;
64738;SDS011;51175;51.186;0.276;2023-03-23T02:11:54;159.57;;;108.70;;
64738;SDS011;51175;51.186;0.276;2023-03-23T02:12:26;154.88;;;105.68;;
64738;SDS011;51175;51.186;0.276;2023-03-23T02:12:57;152.23;;;105.57;;
64738;SDS011;51175;51.186;0.276;2023-03-23T02:13:28;149.57;;;105.13;;
64738;SDS011;51175;51.186;0.276;2023-03-23T02:13:59;151.82;;;104.47;;
64738;SDS011;51175;51.186;0.276;2023-03-23T02:14:31;148.38;;;105.43;;
64738;SDS011;51175;51.186;0.276;2023-03-23T02:15:01;149.18;;;105.93;;
64738;SDS011;51175;51.186;0.276;2023-03-23T02:15:56;154.98;;;106.55;;
64738;SDS011;51175;51.186;0.276;2023-03-23T02:16:39;159.30;;;107.65;;
64738;SDS011;51175;51.186;0.276;2023-03-23T02:17:21;145.02;;;100.25;;
64738;SDS011;51175;51.186;0.276;2023-03-23T02:33:36;142.27;;;93.30;;
64738;SDS011;51175;51.186;0.276;2023-03-23T02:34:18;140.27;;;90.30;;
64738;SDS011;51175;51.186;0.276;2023-03-23T02:34:57;140.38;;;91.35;;
64738;SDS011;51175;51.186;0.276;2023-03-23T02:35:38;141.75;;;93.90;;
64738;SDS011;51175;51.186;0.276;2023-03-23T02:36:17;143.93;;;97.32;;
64738;SDS011;51175;51.186;0.276;2023-03-23T02:37:29;138.52;;;93.05;;
64738;SDS011;51175;51.186;0.276;2023-03-23T02:38:16;133.05;;;90.85;;
64738;SDS011;51175;51.186;0.276;2023-03-23T02:38:59;132.20;;;87.65;;
64738;SDS011;51175;51.186;0.276;2023-03-23T02:39:48;136.57;;;88.53;;
64738;SDS011;51175;51.186;0.276;2023-03-23T02:40:33;136.57;;;87.20;;
64738;SDS011;51175;51.186;0.276;2023-03-23T02:41:11;137.82;;;90.55;;
64738;SDS011;51175;51.186;0.276;2023-03-23T02:41:51;131.13;;;88.00;;
64738;SDS011;51175;51.186;0.276;2023-03-23T02:42:26;130.05;;;86.00;;
64738;SDS011;51175;51.186;0.276;2023-03-23T02:43:01;129.10;;;87.57;;
64738;SDS011;51175;51.186;0.276;2023-03-23T02:43:36;136.43;;;90.57;;
64738;SDS011;51175;51.186;0.276;2023-03-23T02:44:14;129.02;;;86.97;;
64738;SDS011;51175;51.186;0.276;2023-03-23T02:44:46;129.52;;;87.40;;
64738;SDS011;51175;51.186;0.276;2023-03-23T02:45:19;131.98;;;88.63;;
64738;SDS011;51175;51.186;0.276;2023-03-23T02:45:52;131.18;;;85.38;;
64738;SDS011;51175;51.186;0.276;2023-03-23T02:46:24;129.68;;;85.43;;
64738;SDS011;51175;51.186;0.276;2023-03-23T02:46:56;129.98;;;86.85;;
64738;SDS011;51175;51.186;0.276;2023-03-23T02:47:29;128.57;;;87.35;;
64738;SDS011;51175;51.186;0.276;2023-03-23T02:48:00;131.20;;;85.25;;
64738;SDS011;51175;51.186;0.276;2023-03-23T02:48:34;128.38;;;89.03;;
64738;SDS011;51175;51.186;0.276;2023-03-23T02:49:07;124.15;;;84.30;;
64738;SDS011;51175;51.186;0.276;2023-03-23T02:49:39;126.88;;;86.82;;
64738;SDS011;51175;51.186;0.276;2023-03-23T02:50:13;131.75;;;89.57;;
64738;SDS011;51175;51.186;0.276;2023-03-23T02:50:45;124.70;;;84.53;;
64738;SDS011;51175;51.186;0.276;2023-03-23T02:51:19;126.95;;;84.88;;
64738;SDS011;51175;51.186;0.276;2023-03-23T02:51:52;125.63;;;85.95;;
64738;SDS011;51175;51.186;0.276;2023-03-23T02:52:27;120.53;;;83.28;;
64738;SDS011;51175;51.186;0.276;2023-03-23T02:53:00;117.95;;;80.57;;
64738;SDS011;51175;51.186;0.276;2023-03-23T02:53:34;125.57;;;81.70;;
64738;SDS011;51175;51.186;0.276;2023-03-23T02:54:07;118.35;;;81.68;;
64738;SDS011;51175;51.186;0.276;2023-03-23T02:54:40;120.45;;;81.00;;
64738;SDS011;51175;51.186;0.276;2023-03-23T02:55:14;123.13;;;83.85;;
64738;SDS011;51175;51.186;0.276;2023-03-23T02:55:45;118.90;;;82.55;;
64738;SDS011;51175;51.186;0.276;2023-03-23T02:56:18;124.78;;;80.75;;
64738;SDS011;51175;51.186;0.276;2023-03-23T02:56:51;115.97;;;80.85;;
64738;SDS011;51175;51.186;0.276;2023-03-23T02:57:24;120.78;;;82.80;;
64738;SDS011;51175;51.186;0.276;2023-03-23T02:57:56;119.97;;;82.35;;
64738;SDS011;51175;51.186;0.276;2023-03-23T02:58:26;113.45;;;77.18;;
64738;SDS011;51175;51.186;0.276;2023-03-23T02:58:57;117.40;;;80.95;;
64738;SDS011;51175;51.186;0.276;2023-03-23T02:59:27;118.82;;;80.45;;
64738;SDS011;51175;51.186;0.276;2023-03-23T02:59:58;113.93;;;78.25;;
64738;SDS011;51175;51.186;0.276;2023-03-23T03:00:28;116.10;;;79.50;;
64738;SDS011;51175;51.186;0.276;2023-03-23T03:00:59;123.63;;;80.63;;
64738;SDS011;51175;51.186;0.276;2023-03-23T03:02:28;117.40;;;77.30;;
64738;SDS011;51175;51.186;0.276;2023-03-23T03:03:07;123.50;;;82.55;;
64738;SDS011;51175;51.186;0.276;2023-03-23T03:03:45;112.30;;;74.10;;
64738;SDS011;51175;51.186;0.276;2023-03-23T03:04:16;113.28;;;78.13;;
64738;SDS011;51175;51.186;0.276;2023-03-23T03:05:02;111.60;;;76.75;;
64738;SDS011;51175;51.186;0.276;2023-03-23T03:08:04;117.47;;;76.18;;
64738;SDS011;51175;51.186;0.276;2023-03-23T03:08:41;111.03;;;74.90;;
64738;SDS011;51175;51.186;0.276;2023-03-23T03:09:26;106.43;;;72.47;;
64738;SDS011;51175;51.186;0.276;2023-03-23T03:10:57;113.28;;;74.88;;
64738;SDS011;51175;51.186;0.276;2023-03-23T03:11:33;112.78;;;73.03;;
64738;SDS011;51175;51.186;0.276;2023-03-23T03:12:12;116.70;;;77.10;;
64738;SDS011;51175;51.186;0.276;2023-03-23T03:14:54;110.22;;;70.25;;
64738;SDS011;51175;51.186;0.276;2023-03-23T03:15:28;106.80;;;70.57;;
64738;SDS011;51175;51.186;0.276;2023-03-23T03:16:06;113.85;;;73.22;;
64738;SDS011;51175;51.186;0.276;2023-03-23T03:16:53;115.50;;;72.85;;
64738;SDS011;51175;51.186;0.276;2023-03-23T03:17:31;114.35;;;72.03;;
64738;SDS011;51175;51.186;0.276;2023-03-23T03:18:15;105.60;;;68.75;;
64738;SDS011;51175;51.186;0.276;2023-03-23T03:19:06;107.57;;;69.85;;
64738;SDS011;51175;51.186;0.276;2023-03-23T03:19:44;107.00;;;71.05;;
64738;SDS011;51175;51.186;0.276;2023-03-23T03:20:18;112.47;;;70.43;;
64738;SDS011;51175;51.186;0.276;2023-03-23T03:20:50;112.13;;;72.10;;
64738;SDS011;51175;51.186;0.276;2023-03-23T03:21:25;102.15;;;68.63;;
64738;SDS011;51175;51.186;0.276;2023-03-23T03:21:59;105.47;;;70.63;;
64738;SDS011;51175;51.186;0.276;2023-03-23T03:22:30;106.75;;;70.40;;
64738;SDS011;51175;51.186;0.276;2023-03-23T03:23:00;108.20;;;70.07;;
64738;SDS011;51175;51.186;0.276;2023-03-23T03:23:32;100.75;;;68.65;;
64738;SDS011;51175;51.186;0.276;2023-03-23T03:24:05;102.05;;;68.65;;
64738;SDS011;51175;51.186;0.276;2023-03-23T03:24:41;104.78;;;69.00;;
64738;SDS011;51175;51.186;0.276;2023-03-23T03:25:12;105.00;;;68.47;;
64738;SDS011;51175;51.186;0.276;2023-03-23T03:25:48;102.38;;;66.93;;
64738;SDS011;51175;51.186;0.276;2023-03-23T03:26:20;100.35;;;67.80;;
64738;SDS011;51175;51.186;0.276;2023-03-23T03:26:56;102.38;;;67.65;;
64738;SDS011;51175;51.186;0.276;2023-03-23T03:27:29;103.75;;;67.32;;
64738;SDS011;51175;51.186;0.276;2023-03-23T03:28:02;105.25;;;67.40;;
64738;SDS011;51175;51.186;0.276;2023-03-23T03:28:34;104.57;;;66.75;;
64738;SDS011;51175;51.186;0.276;2023-03-23T03:29:04;101.00;;;66.75;;
64738;SDS011;51175;51.186;0.276;2023-03-23T03:29:36;104.13;;;68.47;;
64738;SDS011;51175;51.186;0.276;2023-03-23T03:30:11;104.90;;;68.68;;
64738;SDS011;51175;51.186;0.276;2023-03-23T03:30:45;106.03;;;66.18;;
64738;SDS011;51175;51.186;0.276;2023-03-23T03:31:18;101.03;;;67.00;;
64738;SDS011;51175;51.186;0.276;2023-03-23T03:31:52;103.78;;;66.90;;
64738;SDS011;51175;51.186;0.276;2023-03-23T03:32:28;99.50;;;66.70;;
64738;SDS011;51175;51.186;0.276;2023-03-23T03:33:04;98.07;;;63.80;;
64738;SDS011;51175;51.186;0.276;2023-03-23T03:33:34;98.95;;;66.78;;